Time;durP1;ratioP1;P1;durP2;ratioP2;P2;SDS_P1;SDS_P2;PMS_P1;PMS_P2;Temp;Humidity;BMP_temperature;BMP_pressure;BME280_temperature;BME280_humidity;BME280_pressure;Samples;Min_cycle;Max_cycle;Signal;HPM_P1;HPM_P2
2023/06/09 00:02:06;;;;;;;13.93;3.03;;;;;;;15.17;77.53;101165.47;7360271;19;20653;-63
2023/06/09 00:04:37;;;;;;;10.55;2.25;;;;;;;15.17;77.51;101159.34;7364432;19;20693;-63
2023/06/09 00:07:06;;;;;;;10.35;2.58;;;;;;;15.18;77.32;101163.63;7362851;19;20375;-63
2023/06/09 00:09:34;;;;;;;8.20;2.30;;;;;;;15.25;77.14;101153.97;7363005;19;20467;-62
2023/06/09 00:12:02;;;;;;;11.05;2.22;;;;;;;15.26;76.90;101155.63;7364522;19;20039;-62
2023/06/09 00:14:29;;;;;;;9.45;2.55;;;;;;;15.20;77.21;101157.16;7363338;19;20089;-63
2023/06/09 00:16:56;;;;;;;11.90;2.33;;;;;;;15.22;77.18;101147.19;7360065;19;20043;-62
2023/06/09 00:19:24;;;;;;;11.15;3.35;;;;;;;15.21;77.60;101142.91;7362544;19;20006;-62
2023/06/09 00:21:51;;;;;;;7.53;2.13;;;;;;;15.15;78.32;101150.72;7357795;19;20011;-64
2023/06/09 00:24:21;;;;;;;7.72;2.63;;;;;;;15.08;77.73;101141.81;7361452;19;20045;-63
2023/06/09 00:26:50;;;;;;;13.68;2.90;;;;;;;15.00;78.34;101132.09;7362288;19;20021;-63
2023/06/09 00:29:19;;;;;;;12.25;3.00;;;;;;;14.96;78.71;101136.09;7362279;19;20361;-63
2023/06/09 00:31:46;;;;;;;9.98;2.80;;;;;;;14.94;78.91;101136.25;7359072;19;20041;-62
2023/06/09 00:34:14;;;;;;;9.98;2.60;;;;;;;14.90;79.25;101140.25;7361668;19;20049;-64
2023/06/09 00:36:44;;;;;;;16.02;3.08;;;;;;;14.66;80.07;101131.59;7362215;19;20014;-63
2023/06/09 00:39:13;;;;;;;12.20;3.10;;;;;;;14.67;80.48;101135.91;7359634;19;20018;-62
2023/06/09 00:41:41;;;;;;;12.25;2.88;;;;;;;14.65;80.89;101136.06;7358731;19;20030;-63
2023/06/09 00:44:08;;;;;;;12.32;2.70;;;;;;;14.62;80.93;101131.13;7361211;19;22011;-63
2023/06/09 00:46:39;;;;;;;15.45;3.65;;;;;;;14.59;81.41;101128.78;7360386;19;20110;-64
2023/06/09 00:49:06;;;;;;;15.15;2.97;;;;;;;14.58;81.70;101132.44;7359155;19;20018;-64
2023/06/09 00:51:36;;;;;;;11.60;2.80;;;;;;;14.60;81.74;101135.75;7363159;19;20561;-63
2023/06/09 00:54:04;;;;;;;11.32;2.88;;;;;;;14.60;82.10;101137.56;7357884;19;20052;-62
2023/06/09 00:56:36;;;;;;;15.50;4.05;;;;;;;14.65;82.60;101128.13;7362799;19;20068;-62
2023/06/09 00:59:08;;;;;;;14.13;3.25;;;;;;;14.65;81.68;101130.75;7361288;19;20138;-64
2023/06/09 01:01:37;;;;;;;14.20;3.38;;;;;;;14.69;81.73;101137.34;7359956;19;20636;-63
2023/06/09 01:04:04;;;;;;;10.55;2.88;;;;;;;14.61;81.67;101129.47;7360166;19;20498;-62
2023/06/09 01:06:43;;;;;;;11.65;3.33;;;;;;;14.59;81.96;101126.13;7363488;19;20028;-63
2023/06/09 01:09:25;;;;;;;14.88;3.38;;;;;;;14.56;82.47;101131.78;7360787;19;20462;-62
2023/06/09 01:12:11;;;;;;;11.90;2.88;;;;;;;14.37;83.25;101130.38;7360854;19;20324;-64
2023/06/09 01:14:53;;;;;;;11.45;3.22;;;;;;;14.33;83.71;101130.81;7360919;19;20425;-62
2023/06/09 01:17:23;;;;;;;15.80;3.70;;;;;;;14.31;84.13;101122.25;7359137;19;21711;-62
2023/06/09 01:19:57;;;;;;;12.82;2.88;;;;;;;14.31;83.94;101114.31;7360814;19;20033;-63
2023/06/09 01:22:37;;;;;;;13.63;3.63;;;;;;;14.28;84.18;101128.69;7359735;19;20068;-62
2023/06/09 01:25:25;;;;;;;16.02;3.33;;;;;;;14.28;84.55;101122.56;7360583;19;20608;-63
2023/06/09 01:27:57;;;;;;;12.88;3.13;;;;;;;14.26;84.51;101130.69;7360078;19;20526;-62
2023/06/09 01:30:32;;;;;;;15.60;3.72;;;;;;;14.23;84.65;101133.66;7360643;19;20019;-62
2023/06/09 01:33:06;;;;;;;12.50;3.75;;;;;;;14.25;84.85;101128.22;7358284;19;20070;-63
2023/06/09 01:35:34;;;;;;;16.02;3.85;;;;;;;14.30;84.69;101116.13;7366850;19;20015;-62
2023/06/09 01:38:03;;;;;;;14.30;3.33;;;;;;;14.35;84.58;101124.38;7367001;19;20117;-62
2023/06/09 01:40:34;;;;;;;10.85;3.63;;;;;;;14.34;84.46;101121.88;7366527;19;20045;-63
2023/06/09 01:43:05;;;;;;;17.45;3.83;;;;;;;14.31;84.82;101128.38;7366195;19;20045;-62
2023/06/09 01:45:33;;;;;;;14.82;3.55;;;;;;;14.29;84.80;101125.06;7366832;19;20022;-63
2023/06/09 01:48:11;;;;;;;13.90;3.38;;;;;;;14.29;85.02;101129.53;7363913;19;20060;-65
2023/06/09 01:50:48;;;;;;;20.75;4.55;;;;;;;14.25;85.12;101117.63;7366575;19;20014;-62
2023/06/09 01:53:22;;;;;;;12.25;3.80;;;;;;;14.21;85.68;101116.31;7363670;19;20026;-62
2023/06/09 01:55:55;;;;;;;17.67;3.45;;;;;;;14.23;85.50;101130.19;7367671;19;20466;-62
2023/06/09 01:58:25;;;;;;;18.30;4.18;;;;;;;14.15;85.88;101125.75;7366749;19;20018;-63
2023/06/09 02:00:54;;;;;;;15.88;3.83;;;;;;;14.13;86.03;101120.63;7363101;19;20082;-63
2023/06/09 02:03:23;;;;;;;19.40;3.58;;;;;;;14.15;86.12;101120.47;7361660;19;20039;-64
2023/06/09 02:05:53;;;;;;;17.05;3.90;;;;;;;14.17;86.19;101121.09;7368619;19;20053;-63
2023/06/09 02:08:21;;;;;;;12.43;3.45;;;;;;;14.16;86.37;101119.47;7366129;19;20447;-63
2023/06/09 02:10:51;;;;;;;12.60;3.13;;;;;;;14.17;86.20;101120.31;7366322;19;20569;-62
2023/06/09 02:13:19;;;;;;;20.85;3.20;;;;;;;14.19;86.91;101108.53;7366906;19;20010;-63
2023/06/09 02:15:48;;;;;;;14.25;3.88;;;;;;;14.24;86.93;101108.03;7365827;19;20018;-63
2023/06/09 02:18:20;;;;;;;18.13;3.85;;;;;;;14.31;85.89;101112.47;7364578;19;20025;-62
2023/06/09 02:20:49;;;;;;;17.98;3.22;;;;;;;14.38;85.57;101105.53;7367951;19;20048;-63
2023/06/09 02:23:19;;;;;;;15.52;4.03;;;;;;;14.41;85.80;101110.50;7365226;19;20018;-63
2023/06/09 02:25:47;;;;;;;13.13;3.38;;;;;;;14.40;85.61;101118.59;7360228;19;20046;-63
2023/06/09 02:28:16;;;;;;;23.13;3.55;;;;;;;14.43;85.34;101112.94;7366101;19;20010;-62
2023/06/09 02:30:44;;;;;;;17.15;3.03;;;;;;;14.47;85.78;101109.81;7365224;19;20018;-62
2023/06/09 02:33:14;;;;;;;17.45;4.10;;;;;;;14.50;85.40;101108.63;7364073;19;20015;-62
2023/06/09 02:35:41;;;;;;;14.85;3.72;;;;;;;14.53;84.94;101100.34;7365759;19;20026;-62
2023/06/09 02:38:09;;;;;;;18.35;3.47;;;;;;;14.46;85.16;101107.34;7365754;19;20038;-63
2023/06/09 02:40:36;;;;;;;18.70;3.63;;;;;;;14.26;85.89;101098.94;7365916;19;20019;-63
2023/06/09 02:43:03;;;;;;;18.15;3.65;;;;;;;14.19;86.70;101084.72;7362767;19;20045;-63
2023/06/09 02:45:30;;;;;;;15.57;3.85;;;;;;;14.20;86.36;101091.66;7361217;19;20007;-64
2023/06/09 02:47:57;;;;;;;16.00;3.40;;;;;;;14.21;86.93;101097.78;7361480;19;20007;-63
2023/06/09 02:50:25;;;;;;;14.07;3.38;;;;;;;14.19;87.18;101089.19;7364606;19;20020;-63
2023/06/09 02:52:52;;;;;;;16.00;4.50;;;;;;;14.23;86.75;101090.47;7365970;19;20134;-63
2023/06/09 02:55:20;;;;;;;18.88;3.67;;;;;;;14.29;86.21;101089.81;7365036;19;20033;-63
2023/06/09 02:57:47;;;;;;;18.23;4.18;;;;;;;14.27;86.37;101082.06;7366129;19;20040;-63
2023/06/09 03:00:15;;;;;;;13.85;3.65;;;;;;;14.18;86.73;101080.41;7362426;19;20086;-62
2023/06/09 03:02:45;;;;;;;18.02;3.63;;;;;;;14.15;87.12;101086.06;7359682;19;20019;-62
2023/06/09 03:05:13;;;;;;;15.77;4.18;;;;;;;14.09;87.30;101076.97;7366066;19;20800;-63
2023/06/09 03:07:40;;;;;;;14.45;2.92;;;;;;;14.06;87.18;101079.97;7364311;19;20014;-63
2023/06/09 03:10:08;;;;;;;16.65;3.95;;;;;;;14.07;87.29;101078.13;7364765;19;20475;-63
2023/06/09 03:12:38;;;;;;;17.90;3.88;;;;;;;13.93;87.60;101069.06;7365680;19;20030;-63
2023/06/09 03:15:08;;;;;;;19.33;5.13;;;;;;;13.83;88.36;101064.94;7365002;19;20047;-63
2023/06/09 03:17:35;;;;;;;15.65;2.78;;;;;;;13.91;88.37;101065.78;7360353;19;20021;-63
2023/06/09 03:20:06;;;;;;;15.85;3.65;;;;;;;13.95;87.83;101074.19;7364820;19;20118;-64
2023/06/09 03:22:36;;;;;;;13.77;3.15;;;;;;;13.88;87.97;101066.09;7363176;19;20489;-64
2023/06/09 03:25:05;;;;;;;12.30;2.83;;;;;;;13.91;88.03;101067.59;7360929;19;20515;-63
2023/06/09 03:27:33;;;;;;;14.95;2.90;;;;;;;13.94;88.16;101073.38;7362717;19;20018;-63
2023/06/09 03:30:00;;;;;;;16.25;3.30;;;;;;;13.82;88.20;101066.75;7365617;19;21712;-64
2023/06/09 03:32:27;;;;;;;11.77;2.83;;;;;;;13.81;88.13;101062.50;7359087;19;20046;-64
2023/06/09 03:34:55;;;;;;;15.23;3.03;;;;;;;13.78;88.45;101051.41;7363504;19;20010;-63
2023/06/09 03:37:22;;;;;;;13.52;3.15;;;;;;;13.78;88.43;101051.41;7363177;19;20043;-63
2023/06/09 03:39:49;;;;;;;16.10;3.20;;;;;;;13.76;88.55;101051.59;7364898;19;20841;-63
2023/06/09 03:42:19;;;;;;;13.82;2.90;;;;;;;13.80;88.28;101049.44;7356646;19;20029;-63
2023/06/09 03:44:46;;;;;;;16.25;3.78;;;;;;;13.84;88.03;101038.34;7364131;19;20007;-64
2023/06/09 03:47:14;;;;;;;17.92;2.83;;;;;;;13.88;88.25;101050.22;7360107;19;20022;-63
2023/06/09 03:49:41;;;;;;;15.10;3.08;;;;;;;13.87;88.05;101053.84;7361449;19;20455;-63
2023/06/09 03:52:08;;;;;;;14.57;3.58;;;;;;;13.89;87.62;101054.53;7361162;19;20014;-63
2023/06/09 03:54:38;;;;;;;17.92;3.65;;;;;;;13.92;87.65;101058.63;7363477;19;20046;-62
2023/06/09 03:57:06;;;;;;;18.77;3.50;;;;;;;13.88;87.62;101054.69;7363500;19;20025;-63
2023/06/09 03:59:34;;;;;;;13.63;2.97;;;;;;;13.89;87.97;101059.00;7364376;19;20036;-63
2023/06/09 04:02:01;;;;;;;16.48;2.78;;;;;;;13.85;87.82;101057.69;7361562;19;20610;-63
2023/06/09 04:04:28;;;;;;;19.27;3.88;;;;;;;13.84;87.97;101062.16;7362678;19;20122;-62
2023/06/09 04:06:56;;;;;;;20.13;2.88;;;;;;;13.83;88.35;101051.72;7362256;19;20018;-63
2023/06/09 04:09:23;;;;;;;21.52;3.92;;;;;;;13.78;88.27;101056.69;7364712;19;20010;-62
2023/06/09 04:11:50;;;;;;;14.32;3.30;;;;;;;13.60;89.09;101056.91;7365870;19;21580;-63
2023/06/09 04:14:18;;;;;;;15.48;3.22;;;;;;;13.63;89.16;101057.38;7363986;19;20014;-63
2023/06/09 04:16:47;;;;;;;16.88;4.22;;;;;;;13.66;89.09;101064.16;7361942;19;20018;-63
2023/06/09 04:19:14;;;;;;;16.25;3.13;;;;;;;13.69;89.54;101061.19;7361343;19;20026;-62
2023/06/09 04:21:43;;;;;;;15.93;3.58;;;;;;;13.75;88.77;101062.31;7361295;19;20086;-63
2023/06/09 04:24:10;;;;;;;17.08;3.25;;;;;;;13.79;88.84;101066.28;7359931;19;20022;-63
2023/06/09 04:26:39;;;;;;;20.67;4.22;;;;;;;13.82;88.42;101064.13;7360302;19;20034;-62
2023/06/09 04:29:09;;;;;;;18.75;3.35;;;;;;;13.78;88.17;101062.81;7354867;19;20021;-63
2023/06/09 04:31:38;;;;;;;17.80;4.03;;;;;;;13.70;88.45;101065.47;7360688;19;20015;-63
2023/06/09 04:34:10;;;;;;;19.25;3.85;;;;;;;13.56;89.29;101072.25;7360037;19;20015;-62
2023/06/09 04:36:41;;;;;;;14.83;3.23;;;;;;;13.66;89.52;101075.53;7362937;19;20049;-63
2023/06/09 04:39:12;;;;;;;17.85;4.25;;;;;;;13.72;89.37;101074.06;7361345;19;20026;-62
2023/06/09 04:41:39;;;;;;;13.88;3.67;;;;;;;13.75;88.84;101067.63;7361739;19;20039;-64
2023/06/09 04:44:06;;;;;;;17.60;3.00;;;;;;;13.78;88.93;101068.09;7360706;19;20106;-62
2023/06/09 04:46:38;;;;;;;17.15;3.90;;;;;;;13.87;88.06;101068.91;7360449;19;20010;-63
2023/06/09 04:49:08;;;;;;;16.48;3.25;;;;;;;13.89;88.20;101074.88;7360427;19;20022;-63
2023/06/09 04:51:41;;;;;;;13.23;3.28;;;;;;;13.89;87.92;101080.97;7362399;19;20014;-63
2023/06/09 04:54:10;;;;;;;14.57;3.80;;;;;;;13.89;88.23;101078.34;7361745;19;20972;-63
2023/06/09 04:56:44;;;;;;;14.23;2.83;;;;;;;13.89;88.19;101075.69;7362090;19;20669;-63
2023/06/09 04:59:13;;;;;;;14.25;3.17;;;;;;;13.91;87.83;101070.25;7361658;19;20021;-63
2023/06/09 05:01:41;;;;;;;16.13;3.00;;;;;;;13.91;88.12;101078.19;7360992;19;20640;-63
2023/06/09 05:04:08;;;;;;;18.63;4.25;;;;;;;13.90;87.89;101074.72;7357639;19;20046;-63
2023/06/09 05:06:38;;;;;;;19.95;3.50;;;;;;;13.89;87.90;101080.16;7361793;19;20025;-63
2023/06/09 05:09:06;;;;;;;18.75;3.45;;;;;;;13.87;88.09;101080.31;7360182;19;20018;-63
2023/06/09 05:11:35;;;;;;;17.65;4.28;;;;;;;13.88;88.38;101083.78;7360219;19;20022;-62
2023/06/09 05:14:05;;;;;;;18.73;3.17;;;;;;;13.91;88.17;101089.59;7358411;19;20050;-64
2023/06/09 05:16:36;;;;;;;13.02;3.33;;;;;;;13.94;88.21;101086.59;7359733;19;20356;-64
2023/06/09 05:19:06;;;;;;;13.68;3.53;;;;;;;14.02;88.03;101097.16;7359995;19;20576;-63
2023/06/09 05:21:33;;;;;;;15.00;3.55;;;;;;;13.98;87.57;101092.38;7361073;19;20003;-63
2023/06/09 05:24:00;;;;;;;17.35;3.97;;;;;;;13.93;88.11;101095.53;7356737;19;20785;-63
2023/06/09 05:26:29;;;;;;;13.98;3.55;;;;;;;13.84;88.67;101103.63;7359264;19;20029;-62
2023/06/09 05:28:56;;;;;;;18.10;3.53;;;;;;;13.86;88.75;101089.28;7358458;19;20014;-63
2023/06/09 05:31:23;;;;;;;12.30;3.20;;;;;;;13.87;88.57;101088.25;7357573;19;20018;-64
2023/06/09 05:33:50;;;;;;;16.58;4.90;;;;;;;13.82;88.81;101093.22;7358051;19;20478;-63
2023/06/09 05:36:18;;;;;;;13.35;3.90;;;;;;;13.86;88.70;101083.97;7361230;19;20030;-63
2023/06/09 05:38:45;;;;;;;13.75;4.40;;;;;;;13.83;89.19;101088.75;7358672;19;20238;-63
2023/06/09 05:41:14;;;;;;;13.48;4.20;;;;;;;13.89;89.05;101085.44;7361849;19;20042;-63
2023/06/09 05:43:41;;;;;;;18.27;3.78;;;;;;;13.93;88.69;101084.09;7356460;19;20022;-63
2023/06/09 05:46:09;;;;;;;16.77;3.92;;;;;;;13.97;88.89;101073.00;7359126;19;20102;-63
2023/06/09 05:48:39;;;;;;;17.23;4.55;;;;;;;14.07;88.63;101078.94;7355183;19;20014;-62
2023/06/09 05:51:09;;;;;;;16.02;4.57;;;;;;;14.09;88.08;101081.44;7360664;19;21030;-63
2023/06/09 05:53:36;;;;;;;19.60;4.70;;;;;;;13.96;88.68;101075.84;7358860;19;20022;-62
2023/06/09 05:56:05;;;;;;;14.02;4.10;;;;;;;14.04;88.39;101070.53;7360347;19;20306;-62
2023/06/09 05:58:35;;;;;;;15.65;4.05;;;;;;;14.05;88.31;101067.72;7358244;19;20045;-62
2023/06/09 06:01:05;;;;;;;12.88;4.18;;;;;;;13.96;88.62;101058.16;7358883;19;20046;-64
2023/06/09 06:03:32;;;;;;;15.35;4.88;;;;;;;14.06;88.41;101069.38;7353207;19;20102;-63
2023/06/09 06:06:00;;;;;;;14.90;4.18;;;;;;;14.07;88.71;101071.00;7360742;19;20002;-63
2023/06/09 06:08:27;;;;;;;16.75;3.90;;;;;;;14.12;88.61;101067.84;7360044;19;20041;-63
2023/06/09 06:10:55;;;;;;;15.50;3.97;;;;;;;14.16;88.54;101066.53;7362329;19;20026;-64
2023/06/09 06:13:22;;;;;;;17.92;4.30;;;;;;;14.18;87.75;101066.34;7358441;19;20022;-64
2023/06/09 06:15:49;;;;;;;12.00;4.15;;;;;;;14.19;87.98;101065.34;7359720;19;20370;-64
2023/06/09 06:18:16;;;;;;;19.52;4.47;;;;;;;14.20;87.84;101061.72;7357616;19;20015;-63
2023/06/09 06:20:46;;;;;;;21.83;6.38;;;;;;;14.22;88.02;101065.84;7365698;19;20081;-63
2023/06/09 06:23:13;;;;;;;17.65;4.95;;;;;;;14.28;88.22;101061.69;7365721;19;20463;-63
2023/06/09 06:25:41;;;;;;;20.08;5.18;;;;;;;14.36;88.06;101059.03;7365189;19;20014;-63
2023/06/09 06:28:10;;;;;;;16.35;4.43;;;;;;;14.45;87.15;101058.03;7367485;19;20018;-63
2023/06/09 06:30:38;;;;;;;18.35;5.20;;;;;;;14.44;87.01;101061.66;7367478;19;20014;-64
2023/06/09 06:33:06;;;;;;;19.85;4.88;;;;;;;14.39;87.18;101064.81;7363898;19;20015;-62
2023/06/09 06:35:34;;;;;;;16.83;4.05;;;;;;;14.44;87.25;101075.72;7364597;19;20036;-63
2023/06/09 06:38:02;;;;;;;16.10;4.80;;;;;;;14.48;87.13;101074.38;7363789;19;20743;-63
2023/06/09 06:40:31;;;;;;;12.43;5.05;;;;;;;14.48;87.43;101068.25;7367064;19;20051;-63
2023/06/09 06:43:00;;;;;;;19.65;5.13;;;;;;;14.53;87.00;101071.22;7365002;19;20014;-63
2023/06/09 06:45:27;;;;;;;14.13;4.82;;;;;;;14.57;86.97;101067.25;7365741;19;20011;-63
2023/06/09 06:47:55;;;;;;;16.95;5.63;;;;;;;14.59;86.95;101061.75;7361751;19;20011;-63
2023/06/09 06:50:22;;;;;;;17.52;4.95;;;;;;;14.62;86.86;101069.38;7366469;19;20442;-63
2023/06/09 06:52:52;;;;;;;18.00;5.10;;;;;;;14.63;86.93;101069.19;7363949;19;20007;-63
2023/06/09 06:55:19;;;;;;;15.07;4.80;;;;;;;14.72;86.52;101064.69;7365546;19;20493;-63
2023/06/09 06:57:47;;;;;;;18.50;5.40;;;;;;;14.81;86.25;101066.28;7365912;19;20588;-64
2023/06/09 07:00:15;;;;;;;15.55;5.35;;;;;;;14.86;86.00;101077.19;7365575;19;20064;-64
2023/06/09 07:02:46;;;;;;;16.25;5.25;;;;;;;14.88;85.84;101076.00;7361857;19;20022;-64
2023/06/09 07:05:16;;;;;;;16.00;4.85;;;;;;;14.89;85.90;101067.06;7365239;19;20029;-65
2023/06/09 07:07:45;;;;;;;19.55;5.78;;;;;;;14.91;85.97;101066.88;7364299;19;20094;-63
2023/06/09 07:10:14;;;;;;;19.17;5.82;;;;;;;14.83;86.53;101067.75;7364298;19;20014;-63
2023/06/09 07:12:44;;;;;;;19.88;5.95;;;;;;;14.88;86.28;101072.53;7365074;19;20031;-63
2023/06/09 07:15:14;;;;;;;14.98;5.57;;;;;;;14.94;86.41;101071.81;7364020;19;20014;-64
2023/06/09 07:17:41;;;;;;;22.50;5.72;;;;;;;14.91;86.26;101062.41;7359256;19;20025;-63
2023/06/09 07:20:11;;;;;;;18.25;5.88;;;;;;;14.84;86.54;101063.28;7363072;19;20518;-64
2023/06/09 07:22:40;;;;;;;18.45;5.60;;;;;;;14.92;86.56;101072.03;7363838;19;20022;-63
2023/06/09 07:25:09;;;;;;;20.08;6.38;;;;;;;14.99;86.04;101062.34;7363668;19;20024;-64
2023/06/09 07:27:36;;;;;;;24.20;5.90;;;;;;;15.11;86.14;101057.47;7364972;19;20047;-65
2023/06/09 07:30:04;;;;;;;25.45;6.10;;;;;;;15.25;85.68;101063.81;7362519;19;20363;-64
2023/06/09 07:32:35;;;;;;;18.95;5.72;;;;;;;15.41;84.62;101064.53;7360845;19;20090;-63
2023/06/09 07:35:05;;;;;;;20.13;5.68;;;;;;;15.45;84.33;101062.34;7358915;19;20102;-64
2023/06/09 07:37:36;;;;;;;23.25;5.72;;;;;;;15.59;83.94;101064.25;7363471;19;20019;-64
2023/06/09 07:40:04;;;;;;;16.15;5.30;;;;;;;15.87;83.12;101067.13;7364021;19;20037;-63
2023/06/09 07:42:47;;;;;;;19.25;5.65;;;;;;;16.95;78.58;101065.50;7361250;19;20034;-63
2023/06/09 07:45:15;;;;;;;16.35;4.75;;;;;;;17.98;74.24;101067.63;7361557;19;20030;-64
2023/06/09 07:47:43;;;;;;;12.52;4.43;;;;;;;18.79;70.69;101074.81;7358871;19;20015;-62
2023/06/09 07:50:10;;;;;;;18.25;4.75;;;;;;;18.90;69.51;101076.06;7364865;19;20367;-63
2023/06/09 07:52:38;;;;;;;16.90;4.72;;;;;;;18.96;68.52;101071.78;7362480;19;20015;-65
2023/06/09 07:55:07;;;;;;;17.45;4.93;;;;;;;18.67;69.53;101067.59;7364111;19;20038;-63
2023/06/09 07:57:40;;;;;;;18.17;4.93;;;;;;;18.38;70.63;101074.03;7359579;19;20021;-63
2023/06/09 08:00:09;;;;;;;16.63;4.55;;;;;;;18.09;72.13;101077.72;7363718;19;20018;-63
2023/06/09 08:02:41;;;;;;;15.60;4.55;;;;;;;17.83;73.42;101074.88;7359698;19;20007;-63
2023/06/09 08:05:09;;;;;;;16.35;4.93;;;;;;;17.72;73.82;101065.63;7360236;19;20011;-64
2023/06/09 08:07:38;;;;;;;18.00;4.65;;;;;;;17.89;73.57;101066.97;7362825;19;20101;-63
2023/06/09 08:10:06;;;;;;;16.48;4.90;;;;;;;17.84;73.73;101061.38;7364714;19;20018;-63
2023/06/09 08:12:38;;;;;;;14.25;4.38;;;;;;;17.62;74.84;101059.81;7363828;19;20018;-63
2023/06/09 08:15:08;;;;;;;14.85;5.30;;;;;;;17.71;74.69;101055.16;7361413;19;20048;-63
2023/06/09 08:17:35;;;;;;;14.15;3.63;;;;;;;17.74;74.94;101049.44;7358809;19;20035;-62
2023/06/09 08:20:05;;;;;;;14.80;4.25;;;;;;;17.89;74.84;101047.50;7365192;19;20019;-62
2023/06/09 08:22:36;;;;;;;15.85;4.57;;;;;;;17.93;74.41;101056.72;7362305;19;20660;-64
2023/06/09 08:25:07;;;;;;;12.85;4.45;;;;;;;18.09;74.47;101056.41;7360048;19;20014;-64
2023/06/09 08:27:34;;;;;;;11.00;4.68;;;;;;;18.38;72.84;101048.19;7362112;19;20022;-64
2023/06/09 08:30:03;;;;;;;16.98;4.55;;;;;;;18.57;72.54;101046.66;7363514;19;20010;-63
2023/06/09 08:32:34;;;;;;;15.27;4.72;;;;;;;18.95;70.98;101043.47;7358525;19;20550;-62
2023/06/09 08:35:07;;;;;;;16.15;5.38;;;;;;;19.05;70.33;101044.72;7364302;19;20003;-63
2023/06/09 08:37:36;;;;;;;19.25;4.68;;;;;;;19.28;69.40;101043.53;7363011;19;20090;-63
2023/06/09 08:40:05;;;;;;;21.20;5.28;;;;;;;19.60;67.33;101032.88;7364043;19;21614;-63
2023/06/09 08:42:40;;;;;;;18.45;4.20;;;;;;;19.61;67.85;101045.19;7360221;19;20762;-62
2023/06/09 08:45:08;;;;;;;14.68;4.65;;;;;;;19.50;68.11;101037.81;7363533;19;20058;-62
2023/06/09 08:47:39;;;;;;;20.95;4.25;;;;;;;19.34;69.32;101032.03;7359397;19;20405;-62
2023/06/09 08:50:07;;;;;;;21.38;4.63;;;;;;;19.28;69.87;101030.19;7363984;19;20029;-63
2023/06/09 08:52:38;;;;;;;15.40;4.40;;;;;;;19.38;69.64;101041.28;7363346;19;20029;-64
2023/06/09 08:55:08;;;;;;;;;;;;;;;19.57;68.88;101037.78;7367552;19;20062;-64
2023/06/09 08:57:35;;;;;;;22.50;4.55;;;;;;;19.38;69.13;101035.94;7364778;19;20021;-62
2023/06/09 09:00:11;;;;;;;15.27;4.30;;;;;;;19.52;69.04;101040.25;7363482;19;20605;-63
2023/06/09 09:02:40;;;;;;;14.80;4.60;;;;;;;19.60;68.60;101035.56;7358749;19;20051;-63
2023/06/09 09:05:08;;;;;;;15.73;4.45;;;;;;;19.61;68.75;101034.50;7362329;19;20849;-64
2023/06/09 09:07:35;;;;;;;14.82;4.20;;;;;;;19.81;68.09;101025.69;7361216;19;20049;-62
2023/06/09 09:10:03;;;;;;;17.25;4.38;;;;;;;19.87;67.32;101022.97;7363388;19;20703;-63
2023/06/09 09:12:48;;;;;;;15.75;4.72;;;;;;;19.74;68.44;101014.16;7363722;19;20376;-63
2023/06/09 09:15:17;;;;;;;17.60;4.85;;;;;;;19.63;68.98;101018.28;7357335;19;21584;-61
2023/06/09 09:17:46;;;;;;;10.52;4.10;;;;;;;19.47;69.59;101014.19;7359267;19;20019;-62
2023/06/09 09:20:15;;;;;;;16.00;4.80;;;;;;;19.49;69.51;101012.16;7361385;19;20110;-63
2023/06/09 09:22:48;;;;;;;19.95;4.53;;;;;;;19.45;69.98;101010.94;7356426;19;20010;-63
2023/06/09 09:25:26;;;;;;;14.18;4.00;;;;;;;19.49;70.26;101006.00;7358641;19;20368;-63
2023/06/09 09:28:04;;;;;;;11.65;4.05;;;;;;;19.52;70.14;101002.91;7357672;19;20010;-65
2023/06/09 09:30:43;;;;;;;13.30;4.82;;;;;;;19.60;69.89;101005.38;7360962;19;20043;-62
2023/06/09 09:33:12;;;;;;;11.77;3.80;;;;;;;19.64;69.61;101006.59;7357022;19;20010;-63
2023/06/09 09:35:44;;;;;;;17.38;5.13;;;;;;;19.63;69.42;101004.94;7360772;19;20021;-63
2023/06/09 09:38:16;;;;;;;15.90;4.63;;;;;;;19.50;70.38;100995.13;7362234;19;20014;-63
2023/06/09 09:40:47;;;;;;;11.48;4.40;;;;;;;19.56;70.29;100990.75;7359992;19;20042;-62
2023/06/09 09:43:15;;;;;;;14.50;5.03;;;;;;;19.57;70.58;101000.41;7360448;19;20522;-62
2023/06/09 09:45:46;;;;;;;16.50;5.00;;;;;;;19.69;69.98;100990.75;7357555;19;21081;-63
2023/06/09 09:48:15;;;;;;;14.48;4.50;;;;;;;19.83;69.83;100992.38;7357582;19;20510;-63
2023/06/09 09:50:44;;;;;;;17.00;5.25;;;;;;;19.95;69.50;100993.38;7360365;19;20065;-63
2023/06/09 09:53:12;;;;;;;16.45;5.03;;;;;;;20.04;68.93;100984.09;7360073;19;20011;-63
2023/06/09 09:55:42;;;;;;;17.83;5.20;;;;;;;19.90;69.21;100981.69;7367696;19;20022;-63
2023/06/09 09:58:10;;;;;;;17.23;5.47;;;;;;;19.81;69.75;100983.72;7369069;19;20030;-64
2023/06/09 10:00:46;;;;;;;16.25;5.50;;;;;;;19.92;69.63;100976.94;7370503;19;20010;-62
2023/06/09 10:03:17;;;;;;;15.10;5.35;;;;;;;20.00;69.30;100976.72;7366310;19;20467;-62
2023/06/09 10:05:47;;;;;;;13.57;5.65;;;;;;;20.12;69.31;100982.19;7364543;19;20456;-63
2023/06/09 10:08:21;;;;;;;10.35;5.13;;;;;;;20.18;68.99;100984.84;7364778;19;20558;-63
2023/06/09 10:10:51;;;;;;;21.92;5.50;;;;;;;20.27;68.91;100978.22;7369028;19;20018;-64
2023/06/09 10:13:20;;;;;;;19.00;6.20;;;;;;;20.38;68.63;100979.44;7364944;19;20452;-63
2023/06/09 10:15:51;;;;;;;17.45;5.53;;;;;;;20.44;68.79;100982.09;7365282;19;20014;-63
2023/06/09 10:18:20;;;;;;;17.83;5.18;;;;;;;20.46;68.41;100972.03;7363563;19;20106;-62
2023/06/09 10:20:48;;;;;;;15.77;4.68;;;;;;;20.61;68.20;100981.59;7368533;19;20003;-62
2023/06/09 10:23:16;;;;;;;17.67;5.82;;;;;;;20.67;67.62;100975.41;7367685;19;20383;-63
2023/06/09 10:25:48;;;;;;;17.83;5.10;;;;;;;20.79;67.38;100965.63;7367282;19;20028;-62
2023/06/09 10:28:17;;;;;;;22.45;5.00;;;;;;;20.88;67.58;100967.81;7368096;19;20367;-62
2023/06/09 10:30:47;;;;;;;15.65;5.07;;;;;;;21.01;67.06;100966.09;7365416;19;20010;-63
2023/06/09 10:33:25;;;;;;;15.13;5.35;;;;;;;21.03;66.37;100962.16;7362898;19;20029;-63
2023/06/09 10:35:57;;;;;;;15.75;4.65;;;;;;;21.03;66.89;100966.72;7366075;19;20026;-62
2023/06/09 10:38:39;;;;;;;15.48;5.22;;;;;;;20.96;66.73;100961.41;7367124;19;20060;-63
2023/06/09 10:41:11;;;;;;;20.88;5.32;;;;;;;21.02;67.00;100967.75;7369008;19;20010;-63
2023/06/09 10:43:45;;;;;;;;;;;;;;;21.08;67.47;100951.63;7367827;19;20925;-63
2023/06/09 10:46:13;;;;;;;17.80;4.15;;;;;;;21.16;66.92;100963.94;7366604;19;19922;-62
2023/06/09 10:48:48;;;;;;;19.58;5.70;;;;;;;21.18;66.58;100954.66;7364561;19;20007;-62
2023/06/09 10:51:26;;;;;;;13.75;5.13;;;;;;;21.20;67.20;100959.78;7365313;19;20106;-63
2023/06/09 10:54:10;;;;;;;20.88;6.60;;;;;;;21.19;66.80;100948.25;7364312;19;20652;-63
2023/06/09 10:56:45;;;;;;;15.68;4.85;;;;;;;21.25;66.81;100943.88;7363888;19;20018;-63
2023/06/09 10:59:23;;;;;;;15.13;4.80;;;;;;;21.38;67.15;100942.97;7364220;19;20010;-62
2023/06/09 11:02:01;;;;;;;18.05;5.20;;;;;;;21.53;66.35;100949.59;7363873;19;20450;-63
2023/06/09 11:04:49;;;;;;;12.93;4.78;;;;;;;21.73;65.08;100954.75;7363471;19;20037;-62
2023/06/09 11:07:18;;;;;;;14.32;5.45;;;;;;;21.69;65.29;100953.53;7364214;19;20018;-61
2023/06/09 11:09:49;;;;;;;15.48;4.65;;;;;;;21.74;64.93;100943.78;7367962;19;20705;-66
2023/06/09 11:12:27;;;;;;;16.60;4.88;;;;;;;21.79;65.41;100953.84;7362070;19;20014;-63
2023/06/09 11:14:56;;;;;;;12.93;4.97;;;;;;;21.77;64.59;100935.31;7364359;19;20025;-62
2023/06/09 11:17:25;;;;;;;17.15;5.40;;;;;;;21.71;65.18;100941.56;7363258;19;21685;-63
2023/06/09 11:20:10;;;;;;;15.38;5.40;;;;;;;21.77;65.49;100932.66;7365409;19;20030;-62
2023/06/09 11:22:42;;;;;;;16.52;4.60;;;;;;;21.87;65.25;100928.63;7363205;19;20014;-63
2023/06/09 11:25:19;;;;;;;12.07;4.97;;;;;;;21.94;65.12;100926.72;7364667;19;20039;-63
2023/06/09 11:27:48;;;;;;;16.48;5.55;;;;;;;21.79;64.98;100929.72;7362178;19;20019;-63
2023/06/09 11:30:18;;;;;;;11.18;4.20;;;;;;;21.88;65.04;100922.22;7366504;19;20061;-63